Time;durP1;ratioP1;P1;durP2;ratioP2;P2;SDS_P1;SDS_P2;PMS_P1;PMS_P2;Temp;Humidity;BMP_temperature;BMP_pressure;BME280_temperature;BME280_humidity;BME280_pressure;Samples;Min_cycle;Max_cycle;Signal;HPM_P1;HPM_P2
2022/12/19 00:01:26;;;;;;;5.28;3.40;;;;;;;-2.38;100.00;101572.63;1726833;83;21035;-63
2022/12/19 00:03:56;;;;;;;6.42;3.83;;;;;;;-2.41;100.00;101574.86;1714240;83;21083;-61
2022/12/19 00:06:23;;;;;;;6.58;3.98;;;;;;;-2.19;100.00;101576.48;1701733;84;21403;-61
2022/12/19 00:08:51;;;;;;;6.50;3.80;;;;;;;-2.16;100.00;101573.77;1701910;84;21071;-61
2022/12/19 00:11:20;;;;;;;6.15;3.98;;;;;;;-2.15;100.00;101578.82;1701258;83;20909;-64
2022/12/19 00:13:47;;;;;;;6.85;3.60;;;;;;;-2.15;100.00;101581.38;1702063;84;21170;-61
2022/12/19 00:16:22;;;;;;;6.45;4.03;;;;;;;-2.17;100.00;101577.22;1701891;83;21016;-61
2022/12/19 00:18:50;;;;;;;6.08;3.60;;;;;;;-2.18;100.00;101583.23;1701215;84;21510;-61
2022/12/19 00:21:20;;;;;;;6.75;4.05;;;;;;;-2.19;100.00;101584.97;1701331;82;21307;-64
2022/12/19 00:23:47;;;;;;;7.95;4.50;;;;;;;-2.20;100.00;101587.12;1702445;84;21389;-60
2022/12/19 00:26:23;;;;;;;6.42;3.67;;;;;;;-2.23;100.00;101590.66;1702284;84;21438;-62
2022/12/19 00:28:54;;;;;;;7.60;4.50;;;;;;;-2.24;100.00;101594.53;1702047;84;20992;-67
2022/12/19 00:31:21;;;;;;;6.95;3.90;;;;;;;-2.25;100.00;101596.27;1702249;83;20905;-61
2022/12/19 00:33:49;;;;;;;6.97;4.30;;;;;;;-2.25;100.00;101597.55;1702320;83;21159;-61
2022/12/19 00:36:20;;;;;;;5.83;3.70;;;;;;;-2.21;100.00;101597.78;1702207;84;21032;-61
2022/12/19 00:38:47;;;;;;;6.85;3.98;;;;;;;-2.18;100.00;101594.73;1702798;84;21584;-61
2022/12/19 00:41:17;;;;;;;8.43;4.28;;;;;;;-2.17;100.00;101606.59;1701564;84;21416;-62
2022/12/19 00:43:50;;;;;;;8.80;4.95;;;;;;;-2.19;100.00;101604.13;1672440;84;21107;-61
2022/12/19 00:46:17;;;;;;;7.55;4.10;;;;;;;-2.18;100.00;101610.06;1702292;83;21574;-61
2022/12/19 00:48:46;;;;;;;5.30;3.00;;;;;;;-2.19;100.00;101605.41;1701987;83;21010;-64
2022/12/19 00:51:17;;;;;;;5.78;3.50;;;;;;;-2.22;100.00;101608.09;1701126;84;21102;-61
2022/12/19 00:53:45;;;;;;;6.23;4.07;;;;;;;-2.24;100.00;101612.42;1702430;83;20905;-61
2022/12/19 00:56:16;;;;;;;6.97;4.05;;;;;;;-2.29;100.00;101602.41;1682130;84;21541;-61
2022/12/19 00:58:44;;;;;;;6.08;3.33;;;;;;;-2.28;100.00;101612.17;1701975;83;21288;-63
2022/12/19 01:01:22;;;;;;;7.65;3.98;;;;;;;-2.31;100.00;101616.98;1701658;84;20941;-60
2022/12/19 01:03:50;;;;;;;6.47;3.92;;;;;;;-2.32;100.00;101620.41;1702525;84;21048;-61
2022/12/19 01:06:17;;;;;;;6.33;3.80;;;;;;;-2.31;100.00;101616.98;1702419;83;20952;-61
2022/12/19 01:08:44;;;;;;;5.47;3.35;;;;;;;-2.30;100.00;101617.36;1701621;83;20955;-63
2022/12/19 01:11:11;;;;;;;6.12;3.85;;;;;;;-2.29;100.00;101610.07;1701273;84;21265;-61
2022/12/19 01:13:40;;;;;;;6.87;4.03;;;;;;;-2.28;100.00;101620.66;1701532;84;21425;-60
2022/12/19 01:16:11;;;;;;;6.95;3.87;;;;;;;-2.27;100.00;101621.52;1701855;83;21051;-60
2022/12/19 01:18:38;;;;;;;6.83;3.75;;;;;;;-2.30;100.00;101617.36;1701956;83;20932;-65
2022/12/19 01:21:08;;;;;;;6.95;4.05;;;;;;;-2.28;100.00;101619.38;1701322;83;20889;-61
2022/12/19 01:23:35;;;;;;;7.22;3.52;;;;;;;-2.24;100.00;101616.25;1702432;84;21248;-61
2022/12/19 01:26:03;;;;;;;6.03;3.17;;;;;;;-2.23;100.00;101620.03;1702191;84;20993;-61
2022/12/19 01:28:30;;;;;;;7.35;4.22;;;;;;;-2.21;100.00;101623.33;1701810;83;21041;-64
2022/12/19 01:31:00;;;;;;;6.50;3.45;;;;;;;-2.23;100.00;101622.59;1701270;84;21096;-61
2022/12/19 01:33:27;;;;;;;6.17;3.50;;;;;;;-2.20;100.00;101631.81;1702016;83;21123;-62
2022/12/19 01:35:54;;;;;;;5.92;3.47;;;;;;;-2.18;100.00;101633.05;1701758;83;21265;-60
2022/12/19 01:38:21;;;;;;;6.87;4.25;;;;;;;-2.18;100.00;101630.49;1701383;83;21466;-64
2022/12/19 01:40:51;;;;;;;5.72;3.65;;;;;;;-2.17;100.00;101639.35;1701057;83;21408;-62
2022/12/19 01:43:20;;;;;;;6.08;3.52;;;;;;;-2.19;100.00;101633.95;1701520;83;21146;-61
2022/12/19 01:45:57;;;;;;;6.65;3.92;;;;;;;-2.21;100.00;101636.55;1701761;83;21067;-61
2022/12/19 01:48:34;;;;;;;5.83;3.40;;;;;;;-2.20;100.00;101642.03;1701180;83;21237;-60
2022/12/19 01:51:13;;;;;;;7.12;3.87;;;;;;;-2.18;100.00;101648.38;1701884;84;22225;-60
2022/12/19 01:53:45;;;;;;;6.70;3.90;;;;;;;-2.17;100.00;101650.02;1701619;83;21007;-65
2022/12/19 01:56:12;;;;;;;6.55;3.60;;;;;;;-2.17;100.00;101647.47;1701805;84;21572;-61
2022/12/19 01:58:45;;;;;;;7.75;4.40;;;;;;;-2.18;100.00;101655.59;1701151;84;21023;-61
2022/12/19 02:01:12;;;;;;;5.50;3.45;;;;;;;-2.19;100.00;101656.48;1702054;83;21300;-61
2022/12/19 02:03:41;;;;;;;6.97;3.42;;;;;;;-2.19;100.00;101661.59;1701235;83;21043;-61
2022/12/19 02:06:10;;;;;;;7.10;4.22;;;;;;;-2.19;100.00;101664.61;1701719;83;21385;-63
2022/12/19 02:08:38;;;;;;;7.12;3.77;;;;;;;-2.18;100.00;101668.81;1701472;83;20984;-63
2022/12/19 02:11:06;;;;;;;6.62;3.90;;;;;;;-2.18;100.00;101668.81;1701843;83;21368;-62
2022/12/19 02:13:34;;;;;;;6.83;4.05;;;;;;;-2.19;100.00;101664.16;1701449;83;21256;-65
2022/12/19 02:16:32;;;;;;;8.88;4.92;;;;;;;-2.18;100.00;101667.53;1701410;84;21404;-60
2022/12/19 02:19:43;;;;;;;8.53;4.67;;;;;;;-2.19;100.00;101668.44;1701239;84;21494;-67
2022/12/19 02:22:33;;;;;;;8.23;4.33;;;;;;;-2.41;100.00;101666.78;1650486;85;21431;-62
2022/12/19 02:25:08;;;;;;;7.58;4.33;;;;;;;-2.41;100.00;101675.72;1717521;83;21026;-62
2022/12/19 02:27:59;;;;;;;8.95;4.20;;;;;;;-2.41;100.00;101677.00;1693716;84;21681;-61
2022/12/19 02:30:43;;;;;;;;;;;;;;;-2.39;100.00;101680.75;1696421;83;21078;-60
2022/12/19 02:33:19;;;;;;;7.15;4.55;;;;;;;-2.37;100.00;101677.25;1680755;84;20346;-60
2022/12/19 02:35:57;;;;;;;6.85;4.25;;;;;;;-2.39;100.00;101684.59;1701561;84;21052;-60
2022/12/19 02:38:40;;;;;;;6.58;4.20;;;;;;;-2.43;100.00;101686.44;1701494;83;21076;-61
2022/12/19 02:41:24;;;;;;;7.90;4.58;;;;;;;-2.44;100.00;101692.45;1701086;83;21237;-65
2022/12/19 02:43:51;;;;;;;8.15;4.40;;;;;;;-2.46;100.00;101696.35;1698276;83;20992;-63
2022/12/19 02:46:19;;;;;;;9.83;4.37;;;;;;;-2.45;100.00;101695.91;1701472;83;21077;-59
2022/12/19 02:48:46;;;;;;;7.45;4.53;;;;;;;-2.45;100.00;101698.45;1701239;84;21097;-60
2022/12/19 02:51:16;;;;;;;7.45;4.47;;;;;;;-2.45;100.00;101696.72;1700913;84;20988;-60
2022/12/19 02:53:43;;;;;;;8.20;4.15;;;;;;;-2.42;100.00;101707.27;1701740;84;21253;-59
2022/12/19 02:56:41;;;;;;;8.40;4.15;;;;;;;-2.41;100.00;101702.53;1700976;83;21561;-60
2022/12/19 02:59:19;;;;;;;8.28;4.83;;;;;;;-2.39;100.00;101708.84;1701942;83;21961;-60
2022/12/19 03:02:05;;;;;;;7.75;4.70;;;;;;;-2.40;100.00;101713.12;1701647;84;20947;-60
2022/12/19 03:04:58;;;;;;;7.80;4.28;;;;;;;-2.40;100.00;101709.30;1709792;83;21126;-60
2022/12/19 03:07:40;;;;;;;8.75;4.60;;;;;;;-2.38;100.00;101709.25;1727583;81;21129;-61
2022/12/19 03:10:48;;;;;;;6.72;3.72;;;;;;;-2.40;100.00;101719.51;1727506;81;21974;-60
2022/12/19 03:13:43;;;;;;;9.65;4.72;;;;;;;-2.42;100.00;101721.31;1727398;83;21541;-61
2022/12/19 03:16:11;;;;;;;7.42;4.37;;;;;;;-2.41;100.00;101724.24;1727335;83;21929;-61
2022/12/19 03:18:39;;;;;;;8.80;4.60;;;;;;;-2.41;100.00;101724.24;1727200;81;21023;-62
2022/12/19 03:21:33;;;;;;;7.78;4.35;;;;;;;-2.40;100.00;101727.63;1727415;81;21535;-61
2022/12/19 03:24:00;;;;;;;7.37;4.30;;;;;;;-2.39;100.00;101726.27;1727253;83;21067;-60
2022/12/19 03:26:28;;;;;;;7.85;4.22;;;;;;;-2.37;100.00;101730.05;1726989;83;20996;-61
2022/12/19 03:29:04;;;;;;;8.13;4.58;;;;;;;-2.37;100.00;101725.77;1727771;83;21957;-60
2022/12/19 03:31:31;;;;;;;7.25;4.30;;;;;;;-2.36;100.00;101732.53;1727423;83;21553;-61
2022/12/19 03:34:02;;;;;;;7.55;4.08;;;;;;;-2.32;100.00;101730.68;1727072;81;21346;-63
2022/12/19 03:36:37;;;;;;;7.37;3.98;;;;;;;-2.30;100.00;101735.30;1702909;83;21616;-61
2022/12/19 03:39:05;;;;;;;6.97;4.03;;;;;;;-2.30;100.00;101738.67;1727510;81;21052;-62
2022/12/19 03:44:19;;;;;;;6.60;3.90;;;;;;;-2.27;100.00;101743.66;1727227;83;21098;-62
2022/12/19 03:46:51;;;;;;;7.60;3.95;;;;;;;-2.24;100.00;101747.79;1727629;83;21267;-61
2022/12/19 03:49:18;;;;;;;8.25;4.10;;;;;;;-2.24;100.00;101742.23;1727582;83;20983;-61
2022/12/19 03:51:51;;;;;;;6.83;3.55;;;;;;;-2.23;100.00;101750.30;1726902;83;21141;-61
2022/12/19 03:54:25;;;;;;;7.45;3.77;;;;;;;-2.21;100.00;101756.16;1727304;83;21031;-61
2022/12/19 03:57:16;;;;;;;7.15;3.58;;;;;;;-2.19;100.00;101756.11;1726501;81;21001;-63
2022/12/19 03:59:53;;;;;;;8.58;4.40;;;;;;;-2.16;100.00;101761.52;1727681;83;21456;-62
2022/12/19 04:02:21;;;;;;;9.20;4.72;;;;;;;-2.16;100.00;101765.34;1726865;81;21478;-61
2022/12/19 04:04:52;;;;;;;6.55;3.15;;;;;;;-2.14;100.00;101777.17;1726667;81;21002;-62
2022/12/19 04:07:20;;;;;;;6.90;3.55;;;;;;;-2.13;100.00;101775.45;1727617;83;21372;-61
2022/12/19 04:09:47;;;;;;;6.95;3.42;;;;;;;-2.11;100.00;101785.99;1727052;83;21850;-60
2022/12/19 04:12:24;;;;;;;6.62;3.50;;;;;;;-2.10;100.00;101785.55;1727381;83;22637;-63
2022/12/19 04:14:53;;;;;;;6.85;3.83;;;;;;;-2.10;100.00;101788.92;1727118;81;37474;-66
2022/12/19 04:17:47;;;;;;;7.42;3.50;;;;;;;-2.08;100.00;101792.71;1727084;83;21016;-61
2022/12/19 04:20:19;;;;;;;7.58;3.50;;;;;;;-2.07;100.00;101798.20;1726965;83;20952;-62
2022/12/19 04:23:01;;;;;;;6.35;3.20;;;;;;;-2.07;100.00;101799.47;1726756;83;21047;-63
2022/12/19 04:25:37;;;;;;;7.30;3.42;;;;;;;-2.07;100.00;101807.14;1727423;83;21076;-63
2022/12/19 04:28:13;;;;;;;7.55;3.52;;;;;;;-2.08;100.00;101811.88;1727348;81;21040;-61
2022/12/19 04:30:40;;;;;;;8.65;4.03;;;;;;;-2.09;100.00;101824.23;1726315;82;20988;-61
2022/12/19 04:33:07;;;;;;;7.97;4.20;;;;;;;-2.07;100.00;101828.86;1727502;83;21547;-61
2022/12/19 04:35:35;;;;;;;8.00;3.65;;;;;;;-2.06;100.00;101829.23;1727083;83;21079;-61
2022/12/19 04:38:02;;;;;;;6.58;3.52;;;;;;;-2.06;100.00;101834.34;1726761;83;22470;-62
2022/12/19 04:40:29;;;;;;;5.67;2.87;;;;;;;-2.06;100.00;101843.28;1726848;83;21063;-66
2022/12/19 04:42:57;;;;;;;6.20;3.42;;;;;;;-2.06;100.00;101845.84;1727452;83;21654;-60
2022/12/19 04:45:25;;;;;;;6.40;3.30;;;;;;;-2.07;100.00;101859.06;1727244;81;21695;-60
2022/12/19 04:47:52;;;;;;;5.35;3.10;;;;;;;-2.09;100.00;101859.56;1727213;81;21490;-66
2022/12/19 04:50:20;;;;;;;6.37;3.02;;;;;;;-2.10;100.00;101865.57;1727170;83;21827;-62
2022/12/19 04:52:48;;;;;;;7.35;4.28;;;;;;;-2.12;100.00;101866.52;1727288;82;21031;-60
2022/12/19 04:55:15;;;;;;;5.25;2.40;;;;;;;-2.14;100.00;101878.53;1727319;83;21043;-62
2022/12/19 04:57:42;;;;;;;6.47;3.10;;;;;;;-2.18;100.00;101879.55;1727254;83;20996;-60
2022/12/19 05:00:11;;;;;;;7.05;3.10;;;;;;;-2.21;100.00;101877.48;1726872;83;21474;-61
2022/12/19 05:02:38;;;;;;;7.25;3.83;;;;;;;-2.24;100.00;101885.27;1726877;81;21770;-60
2022/12/19 05:05:07;;;;;;;4.95;2.05;;;;;;;-2.26;100.00;101880.69;1723781;81;20951;-61
2022/12/19 05:07:34;;;;;;;6.35;3.67;;;;;;;-2.28;100.00;101882.45;1701689;83;20901;-60
2022/12/19 05:10:01;;;;;;;4.42;2.45;;;;;;;-2.32;100.00;101889.85;1701378;83;20949;-63
2022/12/19 05:12:29;;;;;;;5.20;2.55;;;;;;;-2.38;100.00;101895.22;1701450;84;20996;-64
2022/12/19 05:14:56;;;;;;;8.50;5.40;;;;;;;-2.46;100.00;101892.96;1701546;84;22325;-62
2022/12/19 05:17:24;;;;;;;12.85;9.23;;;;;;;-2.52;100.00;101900.02;1701623;84;21040;-62
2022/12/19 05:19:51;;;;;;;8.10;4.92;;;;;;;-2.62;100.00;101900.80;1701076;83;21131;-63
2022/12/19 05:22:19;;;;;;;5.80;2.98;;;;;;;-2.72;100.00;101904.59;1701638;84;21011;-60
2022/12/19 05:24:46;;;;;;;4.55;2.50;;;;;;;-2.81;100.00;101912.58;1700795;83;21009;-62
2022/12/19 05:27:14;;;;;;;4.95;2.60;;;;;;;-2.90;100.00;101916.31;1701472;83;21227;-61
2022/12/19 05:29:41;;;;;;;5.17;2.30;;;;;;;-2.97;100.00;101920.79;1701771;83;21013;-62
2022/12/19 05:32:09;;;;;;;5.83;2.83;;;;;;;-3.05;100.00;101923.23;1701357;84;21067;-61
2022/12/19 05:34:36;;;;;;;19.50;13.85;;;;;;;-3.10;100.00;101927.23;1701287;84;20962;-65
2022/12/19 05:37:04;;;;;;;17.82;12.23;;;;;;;-3.15;100.00;101932.09;1701495;84;21005;-62
2022/12/19 05:39:32;;;;;;;6.97;2.98;;;;;;;-3.23;100.00;101935.73;1701723;84;21159;-60
2022/12/19 05:41:59;;;;;;;14.30;10.28;;;;;;;-3.29;100.00;101937.69;1701069;84;21000;-60
2022/12/19 05:44:27;;;;;;;11.70;8.35;;;;;;;-3.33;100.00;101948.43;1701876;84;22015;-60
2022/12/19 05:46:54;;;;;;;8.63;5.40;;;;;;;-3.36;100.00;101944.70;1700865;84;21036;-64
2022/12/19 05:49:24;;;;;;;6.83;2.67;;;;;;;-3.39;100.00;101943.98;1701874;83;21524;-61
2022/12/19 05:51:51;;;;;;;4.92;2.62;;;;;;;-3.35;100.00;101955.73;1701160;84;21305;-62
2022/12/19 05:54:18;;;;;;;5.87;2.40;;;;;;;-3.07;100.00;101955.61;1701538;84;21059;-62
2022/12/19 05:56:46;;;;;;;4.60;2.47;;;;;;;-2.73;100.00;101961.62;1701476;83;21535;-66
2022/12/19 05:59:13;;;;;;;5.42;2.45;;;;;;;-2.29;100.00;101953.59;1701238;83;20996;-61
2022/12/19 06:01:41;;;;;;;5.85;2.65;;;;;;;-1.78;100.00;101956.30;1701797;84;21328;-61
2022/12/19 06:04:08;;;;;;;4.87;2.58;;;;;;;-1.38;100.00;101967.43;1701032;83;21162;-62
2022/12/19 06:06:36;;;;;;;6.92;3.27;;;;;;;-1.24;100.00;101972.80;1714720;82;21018;-61
2022/12/19 06:09:03;;;;;;;4.87;2.30;;;;;;;-1.11;100.00;101985.90;1727034;83;20957;-62
2022/12/19 06:11:30;;;;;;;4.83;2.40;;;;;;;-0.84;100.00;101992.84;1727278;81;22126;-60
2022/12/19 06:13:58;;;;;;;4.47;2.27;;;;;;;-0.74;100.00;101986.88;1727364;81;21086;-60
2022/12/19 06:16:25;;;;;;;5.50;2.37;;;;;;;-0.64;100.00;101997.11;1726540;83;21269;-63
2022/12/19 06:18:53;;;;;;;5.83;2.33;;;;;;;-0.46;100.00;102000.56;1727449;83;21086;-61
2022/12/19 06:21:21;;;;;;;5.10;2.83;;;;;;;-0.39;100.00;101998.10;1726929;81;20996;-62
2022/12/19 06:23:49;;;;;;;4.47;2.27;;;;;;;-0.39;100.00;102000.66;1727074;81;21475;-61
2022/12/19 06:26:19;;;;;;;4.80;2.58;;;;;;;-0.36;100.00;101997.97;1727568;81;21024;-65
2022/12/19 06:28:50;;;;;;;5.00;2.70;;;;;;;-0.10;100.00;102006.20;1727358;83;21209;-60
2022/12/19 06:31:18;;;;;;;4.75;2.42;;;;;;;0.37;100.00;102010.35;1727734;83;21101;-65
2022/12/19 06:33:45;;;;;;;6.03;3.05;;;;;;;0.96;100.00;102010.89;1727340;83;20913;-61
2022/12/19 06:36:26;;;;;;;5.17;2.35;;;;;;;1.55;100.00;102017.22;1726911;81;21118;-63
2022/12/19 06:38:54;;;;;;;5.25;3.20;;;;;;;2.03;100.00;102012.09;1728019;83;21620;-61
2022/12/19 06:44:09;;;;;;;5.80;3.15;;;;;;;2.55;100.00;102022.87;1727165;83;20952;-60
2022/12/19 06:46:36;;;;;;;6.13;3.13;;;;;;;2.78;100.00;102027.16;1727539;81;20948;-63
2022/12/19 06:49:04;;;;;;;7.40;3.70;;;;;;;3.08;100.00;102030.52;1727434;81;21174;-65
2022/12/19 06:51:31;;;;;;;6.93;3.40;;;;;;;3.24;100.00;102036.87;1727518;81;21294;-60
2022/12/19 06:53:58;;;;;;;8.03;4.93;;;;;;;3.47;100.00;102039.34;1727305;83;21262;-61
2022/12/19 06:56:26;;;;;;;6.43;2.90;;;;;;;3.71;100.00;102040.05;1727366;83;21713;-60
2022/12/19 06:58:54;;;;;;;4.97;3.10;;;;;;;3.82;100.00;102045.38;1727727;83;21179;-59
2022/12/19 07:01:57;;;;;;;9.40;5.40;;;;;;;3.81;100.00;102050.18;1726910;83;21117;-66
2022/12/19 07:04:31;;;;;;;7.67;3.90;;;;;;;3.85;100.00;102047.77;1727837;81;22066;-60
2022/12/19 07:07:00;;;;;;;8.47;4.70;;;;;;;3.84;100.00;102051.28;1713158;83;22457;-60
2022/12/19 07:09:27;;;;;;;9.13;5.33;;;;;;;4.05;100.00;102056.84;1701454;83;21250;-62
2022/12/19 07:11:55;;;;;;;12.80;9.90;;;;;;;4.41;100.00;102049.00;1701767;84;21386;-59
2022/12/19 07:14:22;;;;;;;8.93;6.13;;;;;;;4.73;100.00;102054.16;1701911;83;21247;-61
2022/12/19 07:16:50;;;;;;;9.87;6.50;;;;;;;4.82;100.00;102048.41;1701184;84;22232;-64
2022/12/19 07:19:17;;;;;;;12.80;8.70;;;;;;;4.82;100.00;102048.41;1701636;83;22125;-59
2022/12/19 07:21:44;;;;;;;15.97;11.23;;;;;;;5.04;100.00;102060.73;1700960;84;21701;-60
2022/12/19 07:24:11;;;;;;;9.50;5.73;;;;;;;5.36;100.00;102061.60;1701938;84;21772;-59
2022/12/19 07:26:39;;;;;;;95.57;42.60;;;;;;;5.68;100.00;102071.48;1701875;84;21708;-59
2022/12/19 07:29:06;;;;;;;55.87;32.17;;;;;;;5.94;100.00;102073.11;1701016;84;21813;-60
2022/12/19 07:31:34;;;;;;;20.70;13.80;;;;;;;6.12;100.00;102077.93;1701235;84;21573;-72
2022/12/19 07:40:00;;;;;;;10.00;6.83;;;;;;;5.45;100.00;102074.36;1794358;79;22039;-59
2022/12/19 07:42:29;;;;;;;10.63;7.23;;;;;;;5.69;100.00;102075.75;1728979;81;20978;-60
2022/12/19 07:44:56;;;;;;;8.53;6.37;;;;;;;5.81;97.79;102077.00;1691410;84;21255;-65
2022/12/19 07:47:26;;;;;;;6.57;4.30;;;;;;;5.83;94.02;102079.47;1691853;84;22097;-60
2022/12/19 07:49:52;;;;;;;8.70;6.53;;;;;;;5.97;96.98;102080.66;1692289;84;21003;-60
2022/12/19 07:52:20;;;;;;;8.03;5.53;;;;;;;6.23;94.57;102085.76;1692173;84;21524;-60
2022/12/19 07:54:47;;;;;;;12.33;9.67;;;;;;;6.43;91.89;102086.91;1691969;84;20991;-65
2022/12/19 07:57:15;;;;;;;14.13;11.17;;;;;;;6.38;79.76;102087.25;1691312;84;21335;-61
2022/12/19 07:59:43;;;;;;;6.60;3.70;;;;;;;6.07;79.28;102086.03;1678613;85;21050;-60
2022/12/19 08:02:10;;;;;;;7.30;4.57;;;;;;;5.99;81.29;102093.05;1689248;84;20947;-59
2022/12/19 08:04:38;;;;;;;4.93;3.07;;;;;;;5.99;78.26;102083.98;1689504;84;21438;-70
2022/12/19 08:07:05;;;;;;;8.03;4.23;;;;;;;5.88;75.29;102095.52;1688613;84;21497;-63
2022/12/19 08:09:32;;;;;;;5.37;3.53;;;;;;;5.69;75.82;102089.98;1689744;84;21897;-60
2022/12/19 08:11:59;;;;;;;8.10;5.63;;;;;;;5.68;82.21;102091.70;1689425;84;20980;-60
2022/12/19 08:14:27;;;;;;;4.33;2.93;;;;;;;5.86;80.22;102089.61;1689632;84;21481;-59
2022/12/19 08:16:54;;;;;;;5.67;3.73;;;;;;;5.99;77.32;102085.75;1689210;84;21569;-63
2022/12/19 08:19:21;;;;;;;4.87;3.23;;;;;;;5.97;73.95;102093.61;1688867;84;21011;-60
2022/12/19 08:21:48;;;;;;;4.93;2.80;;;;;;;6.05;78.18;102097.77;1689090;84;21393;-60
2022/12/19 08:24:16;;;;;;;6.57;4.50;;;;;;;6.27;75.58;102097.55;1689246;84;20888;-60
2022/12/19 08:26:43;;;;;;;6.27;3.90;;;;;;;6.41;72.69;102101.75;1689020;84;21513;-63
2022/12/19 08:29:11;;;;;;;6.63;3.70;;;;;;;6.47;71.95;102098.70;1689023;84;20880;-69
2022/12/19 08:31:38;;;;;;;6.17;4.10;;;;;;;6.58;70.84;102096.98;1688861;84;20960;-59
2022/12/19 08:34:06;;;;;;;6.40;4.00;;;;;;;6.57;63.80;102105.70;1689462;84;21221;-60
2022/12/19 08:36:37;;;;;;;6.00;3.77;;;;;;;6.49;63.56;102101.55;1689351;84;21621;-60
2022/12/19 08:39:05;;;;;;;5.87;3.97;;;;;;;6.50;62.37;102099.78;1685380;84;21043;-72
2022/12/19 08:41:32;;;;;;;6.23;4.07;;;;;;;6.29;60.49;102099.11;1681778;85;21275;-60
2022/12/19 08:44:00;;;;;;;8.83;4.13;;;;;;;6.03;61.53;102101.42;1682463;85;21510;-59
2022/12/19 08:46:27;;;;;;;5.27;3.40;;;;;;;5.97;66.49;102103.13;1682402;85;21438;-59
2022/12/19 08:48:55;;;;;;;7.03;3.43;;;;;;;6.05;63.84;102102.95;1682177;85;21699;-60
2022/12/19 08:51:22;;;;;;;5.53;3.20;;;;;;;5.90;62.30;102110.47;1633487;85;21791;-59
2022/12/19 08:53:50;;;;;;;6.03;3.77;;;;;;;5.90;62.30;102110.47;1681478;85;21871;-58
2022/12/19 08:56:19;;;;;;;3.77;2.37;;;;;;;5.69;63.12;102102.44;1656427;85;20931;-61
2022/12/19 08:58:47;;;;;;;4.97;3.03;;;;;;;5.52;60.53;102103.58;1681654;85;21182;-68
2022/12/19 09:01:17;;;;;;;5.70;2.90;;;;;;;5.27;65.38;102110.08;1681470;85;21687;-70
2022/12/19 09:03:45;;;;;;;10.83;4.17;;;;;;;5.26;64.66;102108.39;1681640;85;22172;-60
2022/12/19 09:06:13;;;;;;;4.53;2.60;;;;;;;4.98;65.23;102110.23;1681684;85;21642;-60
2022/12/19 09:08:40;;;;;;;4.67;2.13;;;;;;;4.98;65.23;102110.23;1681645;85;21341;-63
2022/12/19 09:11:13;;;;;;;5.03;2.67;;;;;;;5.06;74.26;102119.60;1681235;85;22887;-61
2022/12/19 09:13:41;;;;;;;4.77;2.57;;;;;;;5.06;74.26;102119.60;1681367;85;21278;-60
2022/12/19 09:16:13;;;;;;;6.43;3.43;;;;;;;5.22;68.01;102110.36;1681454;85;21579;-58
2022/12/19 09:18:40;;;;;;;5.83;2.87;;;;;;;5.11;68.19;102112.39;1680992;85;21235;-67
2022/12/19 09:21:07;;;;;;;5.00;2.53;;;;;;;5.07;69.13;102119.13;1681373;85;21189;-61
2022/12/19 09:23:35;;;;;;;4.80;2.53;;;;;;;5.10;68.86;102114.59;1680966;85;21324;-62
2022/12/19 09:26:10;;;;;;;5.30;2.93;;;;;;;5.18;71.52;102121.02;1681550;85;21335;-60
2022/12/19 09:28:38;;;;;;;4.53;2.33;;;;;;;5.37;73.87;102117.08;1680994;85;21279;-69
2022/12/19 09:31:14;;;;;;;5.63;2.90;;;;;;;5.63;71.38;102122.73;1681561;85;21340;-61
2022/12/19 09:33:41;;;;;;;4.67;2.90;;;;;;;5.78;68.81;102124.26;1681465;85;21286;-61
2022/12/19 09:36:14;;;;;;;5.77;3.47;;;;;;;5.82;65.84;102129.11;1681537;85;21488;-60
2022/12/19 09:38:41;;;;;;;5.43;3.47;;;;;;;5.74;62.56;102125.41;1681583;85;21302;-70
2022/12/19 09:41:29;;;;;;;4.97;3.10;;;;;;;5.66;63.81;102130.28;1688809;84;21233;-62
2022/12/19 09:44:26;;;;;;;4.63;2.60;;;;;;;5.56;63.47;102136.53;1688844;84;21316;-60
2022/12/19 09:47:02;;;;;;;5.40;2.70;;;;;;;5.49;63.35;102130.98;1688870;84;21249;-61
2022/12/19 09:49:44;;;;;;;6.63;4.50;;;;;;;5.49;64.16;102130.12;1689021;84;21263;-60
2022/12/19 09:52:42;;;;;;;6.00;3.70;;;;;;;5.59;62.77;102126.81;1689011;84;21236;-68
2022/12/19 09:55:37;;;;;;;4.70;2.73;;;;;;;5.65;62.02;102127.34;1689192;84;20995;-60
2022/12/19 09:58:31;;;;;;;4.43;2.40;;;;;;;5.67;59.77;102122.88;1689406;84;21773;-61
2022/12/19 10:01:01;;;;;;;5.43;3.07;;;;;;;5.63;57.11;102137.78;1688325;84;21226;-60
2022/12/19 10:03:33;;;;;;;4.47;2.43;;;;;;;5.55;58.67;102133.12;1688937;84;21175;-60
2022/12/19 10:06:21;;;;;;;5.33;3.03;;;;;;;5.60;58.12;102132.34;1688720;84;22040;-60
2022/12/19 10:08:48;;;;;;;5.93;3.67;;;;;;;5.69;55.23;102133.96;1688529;84;21203;-62
2022/12/19 10:11:20;;;;;;;4.63;2.40;;;;;;;5.66;54.56;102133.70;1688407;84;21215;-60
2022/12/19 10:14:25;;;;;;;4.37;2.37;;;;;;;5.64;52.94;102132.95;1689169;84;21264;-58
2022/12/19 10:17:28;;;;;;;4.97;2.90;;;;;;;5.49;50.09;102132.70;1688479;84;21295;-61
2022/12/19 10:20:31;;;;;;;4.60;2.37;;;;;;;5.09;49.96;102144.43;1688963;84;21735;-66
2022/12/19 10:23:07;;;;;;;6.50;2.52;;;;;;;4.82;51.36;102151.76;1688813;84;21157;-62
2022/12/19 10:25:49;;;;;;;4.47;2.07;;;;;;;4.61;51.81;102160.41;1688590;84;21011;-67
2022/12/19 10:28:43;;;;;;;3.73;2.03;;;;;;;4.55;52.69;102154.36;1688678;84;21201;-68
2022/12/19 10:31:39;;;;;;;4.43;2.10;;;;;;;4.57;52.92;102151.20;1688728;84;22933;-65
2022/12/19 10:34:28;;;;;;;4.33;2.40;;;;;;;4.68;53.76;102160.85;1689218;84;21558;-60
2022/12/19 10:37:01;;;;;;;5.63;2.93;;;;;;;4.75;52.18;102167.75;1688193;84;21183;-59
2022/12/19 10:39:36;;;;;;;5.80;2.80;;;;;;;4.71;51.95;102157.25;1686289;84;20961;-59
2022/12/19 10:42:09;;;;;;;4.57;2.00;;;;;;;4.58;52.31;102153.31;1718124;83;21864;-60
2022/12/19 10:44:37;;;;;;;4.13;2.20;;;;;;;4.39;51.57;102159.66;1718062;83;21238;-59
2022/12/19 10:47:04;;;;;;;3.50;1.70;;;;;;;4.22;54.91;102160.34;1718205;82;21679;-60
2022/12/19 10:49:31;;;;;;;4.83;2.40;;;;;;;4.33;56.98;102160.50;1683678;85;21758;-60
2022/12/19 10:52:02;;;;;;;4.70;2.50;;;;;;;4.47;55.48;102160.47;1683702;85;21823;-58
2022/12/19 10:54:40;;;;;;;4.47;2.07;;;;;;;4.52;54.47;102153.72;1718176;83;21356;-66
2022/12/19 10:57:25;;;;;;;4.03;2.00;;;;;;;4.51;53.54;102163.66;1718228;83;21459;-58
2022/12/19 11:00:16;;;;;;;4.53;2.80;;;;;;;4.58;54.93;102168.81;1718081;82;21327;-59
2022/12/19 11:02:53;;;;;;;4.90;2.43;;;;;;;4.66;53.92;102167.89;1718395;83;21117;-58
2022/12/19 11:05:32;;;;;;;4.70;2.50;;;;;;;4.63;51.85;102175.36;1718596;83;21028;-59
2022/12/19 11:08:07;;;;;;;5.07;2.47;;;;;;;4.55;52.33;102173.73;1717213;83;21239;-62
2022/12/19 11:10:50;;;;;;;3.80;2.20;;;;;;;4.57;53.30;102184.77;1718633;83;21468;-59
2022/12/19 11:13:39;;;;;;;5.73;3.17;;;;;;;4.58;52.92;102174.83;1718350;82;21122;-60
2022/12/19 11:16:06;;;;;;;4.97;2.60;;;;;;;4.53;53.88;102178.61;1683732;85;21324;-59
2022/12/19 11:18:45;;;;;;;4.80;2.40;;;;;;;4.59;53.85;102175.66;1684022;85;21051;-59
2022/12/19 11:21:21;;;;;;;8.23;4.23;;;;;;;4.50;52.86;102175.75;1683307;85;21357;-59
2022/12/19 11:23:58;;;;;;;6.60;3.13;;;;;;;4.35;53.36;102170.25;1682887;85;22237;-60
2022/12/19 11:26:36;;;;;;;6.80;4.30;;;;;;;4.31;52.79;102171.38;1683436;85;21243;-59
2022/12/19 11:29:17;;;;;;;5.75;3.17;;;;;;;4.28;52.30;102171.55;1717353;83;21316;-60
2022/12/19 11:31:45;;;;;;;6.50;4.40;;;;;;;4.25;53.39;102164.03;1683877;85;21018;-59
2022/12/19 11:34:20;;;;;;;7.15;3.27;;;;;;;4.31;55.56;102175.24;1700713;83;21246;-61
2022/12/19 11:37:10;;;;;;;5.20;2.63;;;;;;;4.37;57.03;102180.04;1683227;84;21241;-63
2022/12/19 11:39:42;;;;;;;5.27;3.00;;;;;;;4.45;60.26;102181.67;1720051;82;21411;-59
2022/12/19 11:42:15;;;;;;;6.33;3.50;;;;;;;4.55;59.19;102185.34;1688396;84;21331;-59
2022/12/19 11:45:12;;;;;;;9.58;4.50;;;;;;;4.42;59.54;102193.48;1689018;84;21195;-60
2022/12/19 11:47:50;;;;;;;7.70;4.00;;;;;;;4.36;61.20;102193.88;1688986;84;20888;-65
2022/12/19 11:50:25;;;;;;;6.27;3.50;;;;;;;4.32;58.75;102184.67;1689488;84;21312;-58
2022/12/19 11:53:14;;;;;;;6.10;3.00;;;;;;;4.10;60.17;102197.59;1689333;84;21309;-60
2022/12/19 11:55:57;;;;;;;6.10;3.33;;;;;;;3.99;61.43;102209.48;1689170;83;21331;-58
2022/12/19 11:58:29;;;;;;;7.15;3.95;;;;;;;3.83;60.81;102212.98;1689523;84;21566;-59
2022/12/19 12:01:25;;;;;;;8.75;4.83;;;;;;;3.65;62.13;102217.93;1688472;84;21019;-59